createdAt,value
2018-08-28T00:02:29.799Z,55.20
2018-08-28T00:04:59.037Z,55.30
2018-08-28T00:07:27.657Z,56.00
2018-08-28T00:09:56.183Z,55.30
2018-08-28T00:12:25.199Z,55.40
2018-08-28T00:14:54.092Z,54.80
2018-08-28T00:17:23.132Z,55.50
2018-08-28T00:19:51.702Z,54.20
2018-08-28T00:22:20.198Z,53.50
2018-08-28T00:24:48.886Z,54.10
2018-08-28T00:27:17.734Z,54.60
2018-08-28T00:29:46.407Z,55.40
2018-08-28T00:32:14.915Z,56.70
2018-08-28T00:34:43.484Z,56.80
2018-08-28T00:37:11.990Z,55.70
2018-08-28T00:39:40.676Z,56.20
2018-08-28T00:42:09.659Z,56.70
2018-08-28T00:44:38.191Z,56.70
2018-08-28T00:47:06.706Z,56.70
2018-08-28T00:49:35.214Z,56.70
2018-08-28T00:52:03.722Z,56.70
2018-08-28T00:54:32.294Z,57.80
2018-08-28T00:57:00.799Z,58.00
2018-08-28T00:59:29.382Z,58.50
2018-08-28T01:01:58.050Z,58.80
2018-08-28T01:04:26.586Z,58.60
2018-08-28T01:06:55.133Z,58.60
2018-08-28T01:09:24.147Z,59.00
2018-08-28T01:11:54.470Z,58.90
2018-08-28T01:14:23.042Z,58.80
2018-08-28T01:16:51.648Z,58.70
2018-08-28T01:19:20.383Z,58.90
2018-08-28T01:21:48.943Z,58.60
2018-08-28T01:24:17.434Z,58.80
2018-08-28T01:26:46.015Z,59.00
2018-08-28T01:29:14.566Z,59.20
2018-08-28T01:31:43.628Z,59.20
2018-08-28T01:34:12.131Z,59.20
2018-08-28T01:36:40.793Z,59.20
2018-08-28T01:39:09.885Z,59.30
2018-08-28T01:41:38.399Z,59.50
2018-08-28T01:44:07.267Z,59.40
2018-08-28T01:46:35.871Z,59.70
2018-08-28T01:49:04.475Z,59.70
2018-08-28T01:51:33.014Z,59.70
2018-08-28T01:54:01.624Z,59.90
2018-08-28T01:56:30.345Z,60.00
2018-08-28T01:58:58.930Z,60.00
2018-08-28T02:01:27.400Z,60.10
2018-08-28T02:03:56.713Z,60.20
2018-08-28T02:06:25.166Z,60.10
2018-08-28T02:08:53.705Z,60.10
2018-08-28T02:11:22.235Z,60.10
2018-08-28T02:13:50.811Z,60.20
2018-08-28T02:16:19.363Z,60.40
2018-08-28T02:18:47.886Z,60.50
2018-08-28T02:21:16.462Z,60.70
2018-08-28T02:23:45.201Z,61.50
2018-08-28T02:26:13.693Z,60.90
2018-08-28T02:28:42.276Z,60.80
2018-08-28T02:31:10.753Z,60.80
2018-08-28T02:33:39.429Z,60.90
2018-08-28T02:36:08.574Z,61.00
2018-08-28T02:38:37.108Z,60.90
2018-08-28T02:41:05.713Z,60.90
2018-08-28T02:43:35.378Z,61.10
2018-08-28T02:46:06.323Z,61.10
2018-08-28T02:48:34.860Z,60.70
2018-08-28T02:51:03.695Z,61.30
2018-08-28T02:53:32.208Z,61.60
2018-08-28T02:56:01.355Z,61.60
2018-08-28T02:58:29.814Z,61.60
2018-08-28T03:00:58.384Z,61.70
2018-08-28T03:03:26.903Z,61.70
2018-08-28T03:05:55.486Z,61.90
2018-08-28T03:08:24.428Z,62.00
2018-08-28T03:10:53.090Z,61.90
2018-08-28T03:13:21.582Z,62.80
2018-08-28T03:15:50.345Z,62.20
2018-08-28T03:18:18.814Z,62.30
2018-08-28T03:20:47.363Z,62.00
2018-08-28T03:23:16.071Z,61.90
2018-08-28T03:25:44.595Z,62.00
2018-08-28T03:28:13.047Z,62.40
2018-08-28T03:30:41.575Z,62.40
2018-08-28T03:33:10.072Z,62.40
2018-08-28T03:35:38.923Z,62.40
2018-08-28T03:38:07.394Z,62.40
2018-08-28T03:40:35.923Z,62.30
2018-08-28T03:43:04.546Z,62.30
2018-08-28T03:45:33.042Z,62.50
2018-08-28T03:48:01.587Z,63.10
2018-08-28T03:50:30.107Z,63.70
2018-08-28T03:52:59.089Z,63.70
2018-08-28T03:55:27.767Z,63.80
2018-08-28T03:57:56.175Z,63.80
2018-08-28T04:00:25.053Z,64.10
2018-08-28T04:02:53.542Z,64.50
2018-08-28T04:05:22.022Z,64.50
2018-08-28T04:07:50.744Z,64.40
2018-08-28T04:10:19.336Z,64.40
2018-08-28T04:12:47.834Z,64.40
2018-08-28T04:15:16.342Z,64.00
2018-08-28T04:17:51.318Z,64.10
2018-08-28T04:20:21.175Z,65.70
2018-08-28T04:22:49.658Z,66.90
2018-08-28T04:25:18.951Z,66.90
2018-08-28T04:27:47.997Z,66.90
2018-08-28T04:30:16.507Z,67.60
2018-08-28T04:32:45.661Z,68.20
2018-08-28T04:35:14.207Z,69.00
2018-08-28T04:37:42.729Z,69.70
2018-08-28T04:40:11.215Z,70.40
2018-08-28T04:42:39.890Z,70.30
2018-08-28T04:45:08.424Z,70.50
2018-08-28T04:47:37.090Z,71.20
2018-08-28T04:50:06.206Z,71.40
2018-08-28T04:52:35.701Z,71.90
2018-08-28T04:55:04.361Z,72.40
2018-08-28T04:57:33.239Z,72.70
2018-08-28T05:00:01.794Z,73.00
2018-08-28T05:02:35.214Z,73.30
2018-08-28T05:05:05.322Z,73.50
2018-08-28T05:07:34.031Z,73.60
2018-08-28T05:10:02.877Z,73.60
2018-08-28T05:12:31.791Z,73.60
2018-08-28T05:15:00.691Z,73.90
2018-08-28T05:17:29.246Z,74.20
2018-08-28T05:19:57.859Z,74.20
2018-08-28T05:22:26.446Z,75.20
2018-08-28T05:24:54.945Z,75.10
2018-08-28T05:27:23.483Z,75.90
2018-08-28T05:29:51.976Z,75.90
2018-08-28T05:32:20.490Z,75.10
2018-08-28T05:34:49.042Z,75.70
2018-08-28T05:37:17.586Z,75.70
2018-08-28T05:39:46.060Z,75.40
2018-08-28T05:42:14.595Z,74.90
2018-08-28T05:44:43.197Z,74.70
2018-08-28T05:47:11.727Z,74.80
2018-08-28T05:49:40.398Z,74.60
2018-08-28T05:52:08.847Z,74.40
2018-08-28T05:54:37.328Z,74.30
2018-08-28T05:57:05.871Z,73.90
2018-08-28T05:59:34.372Z,73.40
2018-08-28T06:02:02.935Z,72.90
2018-08-28T06:04:31.402Z,72.60
2018-08-28T06:07:00.010Z,72.10
2018-08-28T06:09:28.568Z,72.60
2018-08-28T06:11:57.198Z,72.10
2018-08-28T06:14:25.679Z,71.40
2018-08-28T06:16:54.259Z,70.90
2018-08-28T06:19:22.796Z,70.40
2018-08-28T06:21:51.350Z,70.10
2018-08-28T06:24:19.890Z,70.00
2018-08-28T06:26:48.432Z,70.20
2018-08-28T06:29:16.942Z,70.20
2018-08-28T06:31:46.453Z,69.90
2018-08-28T06:34:15.042Z,69.70
2018-08-28T06:36:43.640Z,69.70
2018-08-28T06:39:12.159Z,68.90
2018-08-28T06:41:40.987Z,67.70
2018-08-28T06:44:09.637Z,67.20
2018-08-28T06:46:38.180Z,66.20
2018-08-28T06:49:06.711Z,64.50
2018-08-28T06:51:35.276Z,64.10
2018-08-28T06:54:03.844Z,64.50
2018-08-28T06:56:32.355Z,63.80
2018-08-28T06:59:00.912Z,63.50
2018-08-28T07:01:29.450Z,63.20
2018-08-28T07:03:58.008Z,63.20
2018-08-28T07:06:26.489Z,63.20
2018-08-28T07:08:55.190Z,62.90
2018-08-28T07:11:23.748Z,62.30
2018-08-28T07:13:52.559Z,61.10
2018-08-28T07:16:21.155Z,60.80
2018-08-28T07:18:50.072Z,60.20
2018-08-28T07:21:18.519Z,60.10
2018-08-28T07:23:47.097Z,59.00
2018-08-28T07:26:15.735Z,58.10
2018-08-28T07:28:44.247Z,58.20
2018-08-28T07:31:12.791Z,58.40
2018-08-28T07:33:41.266Z,57.40
2018-08-28T07:36:09.786Z,56.30
2018-08-28T07:38:38.433Z,55.40
2018-08-28T07:41:06.986Z,54.30
2018-08-28T07:43:35.911Z,54.20
2018-08-28T07:46:04.460Z,53.30
2018-08-28T07:48:33.294Z,53.00
2018-08-28T07:51:01.813Z,52.90
2018-08-28T07:53:30.326Z,53.00
2018-08-28T07:55:59.378Z,52.80
2018-08-28T07:58:27.871Z,52.20
2018-08-28T08:00:56.927Z,52.40
2018-08-28T08:03:25.816Z,51.90
2018-08-28T08:05:55.709Z,52.00
2018-08-28T08:08:24.258Z,51.30
2018-08-28T08:10:53.380Z,50.70
2018-08-28T08:13:21.938Z,51.30
2018-08-28T08:15:50.407Z,51.00
2018-08-28T08:18:18.942Z,51.40
2018-08-28T08:20:47.499Z,51.10
2018-08-28T08:23:16.054Z,50.20
2018-08-28T08:25:44.864Z,48.90
2018-08-28T08:28:13.780Z,48.60
2018-08-28T08:30:42.363Z,48.20
2018-08-28T08:33:10.887Z,47.30
2018-08-28T08:35:39.411Z,46.10
2018-08-28T08:38:08.599Z,44.90
2018-08-28T08:40:37.101Z,45.70
2018-08-28T08:43:06.375Z,45.70
2018-08-28T08:45:34.855Z,46.10
2018-08-28T08:48:03.332Z,44.90
2018-08-28T08:50:31.827Z,44.50
2018-08-28T08:53:00.290Z,44.10
2018-08-28T08:55:29.014Z,43.20
2018-08-28T08:57:57.532Z,42.60
2018-08-28T09:00:26.175Z,42.10
2018-08-28T09:02:54.717Z,42.50
2018-08-28T09:05:23.218Z,42.40
2018-08-28T09:07:51.843Z,41.80
2018-08-28T09:10:20.364Z,41.20
2018-08-28T09:12:49.331Z,40.60
2018-08-28T09:15:18.203Z,40.40
2018-08-28T09:17:46.688Z,40.00
2018-08-28T09:20:15.865Z,38.90
2018-08-28T09:22:44.367Z,37.80
2018-08-28T09:25:14.288Z,38.80
2018-08-28T09:27:43.034Z,39.70
2018-08-28T09:30:11.938Z,38.90
2018-08-28T09:32:40.639Z,38.40
2018-08-28T09:35:09.307Z,37.80
2018-08-28T09:37:37.834Z,37.10
2018-08-28T09:40:06.880Z,38.00
2018-08-28T09:42:35.801Z,39.00
2018-08-28T09:45:04.396Z,35.60
2018-08-28T09:47:32.861Z,35.80
2018-08-28T09:50:01.477Z,34.00
2018-08-28T09:52:30.316Z,34.00
2018-08-28T09:54:58.966Z,34.00
2018-08-28T09:57:27.503Z,33.60
2018-08-28T09:59:56.163Z,33.80
2018-08-28T10:02:24.862Z,33.60
2018-08-28T10:04:54.320Z,34.40
2018-08-28T10:07:22.872Z,32.90
2018-08-28T10:09:51.403Z,32.80
2018-08-28T10:12:19.878Z,33.50
2018-08-28T10:14:48.441Z,32.70
2018-08-28T10:17:16.963Z,32.50
2018-08-28T10:19:45.464Z,33.30
2018-08-28T10:22:13.967Z,33.90
2018-08-28T10:24:42.565Z,34.10
2018-08-28T10:27:11.040Z,34.10
2018-08-28T10:29:39.615Z,34.40
2018-08-28T10:32:08.385Z,34.10
2018-08-28T10:34:36.931Z,33.30
2018-08-28T10:37:05.795Z,33.40
2018-08-28T10:39:34.328Z,32.80
2018-08-28T10:42:03.136Z,30.70
2018-08-28T10:44:31.688Z,30.40
2018-08-28T10:47:00.331Z,30.40
2018-08-28T10:49:28.845Z,30.00
2018-08-28T10:51:57.527Z,30.10
2018-08-28T10:54:26.130Z,30.70
2018-08-28T10:56:54.663Z,30.90
2018-08-28T10:59:23.210Z,29.20
2018-08-28T11:01:51.938Z,30.40
2018-08-28T11:04:20.486Z,29.80
2018-08-28T11:06:48.979Z,29.20
2018-08-28T11:09:17.508Z,29.20
2018-08-28T11:11:46.124Z,29.40
2018-08-28T11:14:14.746Z,30.20
2018-08-28T11:16:43.252Z,29.60
2018-08-28T11:19:11.782Z,29.60
2018-08-28T11:21:40.269Z,29.20
2018-08-28T11:24:08.835Z,28.60
2018-08-28T11:26:37.419Z,28.60
2018-08-28T11:29:06.027Z,28.60
2018-08-28T11:31:34.801Z,28.90
2018-08-28T11:34:03.843Z,28.40
2018-08-28T11:36:32.358Z,28.90
2018-08-28T11:39:00.931Z,28.20
2018-08-28T11:41:29.424Z,28.70
2018-08-28T11:43:58.280Z,28.70
2018-08-28T11:46:26.752Z,27.80
2018-08-28T11:48:55.516Z,27.60
2018-08-28T11:51:23.995Z,27.00
2018-08-28T11:53:52.569Z,26.40
2018-08-28T11:56:21.329Z,26.30
2018-08-28T11:58:49.855Z,26.00
2018-08-28T12:01:18.363Z,26.30
2018-08-28T12:03:47.320Z,26.20
2018-08-28T12:06:15.824Z,25.40
2018-08-28T12:08:44.343Z,25.60
2018-08-28T12:11:12.898Z,25.00
2018-08-28T12:13:41.515Z,25.30
2018-08-28T12:16:10.140Z,24.80
2018-08-28T12:18:39.075Z,24.00
2018-08-28T12:21:07.611Z,24.10
2018-08-28T12:23:36.140Z,24.10
2018-08-28T12:26:04.779Z,24.40
2018-08-28T12:28:33.290Z,25.20
2018-08-28T12:31:02.047Z,24.30
2018-08-28T12:33:31.194Z,24.60
2018-08-28T12:35:59.760Z,24.40
2018-08-28T12:38:28.293Z,24.70
2018-08-28T12:40:56.802Z,23.10
2018-08-28T12:43:25.473Z,22.80
2018-08-28T12:45:54.143Z,23.50
2018-08-28T12:48:22.831Z,22.90
2018-08-28T12:50:51.388Z,23.50
2018-08-28T12:53:19.933Z,23.50
2018-08-28T12:55:48.400Z,23.80
2018-08-28T12:58:16.913Z,23.80
2018-08-28T13:00:46.283Z,24.10
2018-08-28T13:03:14.775Z,23.30
2018-08-28T13:05:43.428Z,22.20
2018-08-28T13:08:12.250Z,23.00
2018-08-28T13:10:40.926Z,22.90
2018-08-28T13:13:09.483Z,23.30
2018-08-28T13:15:38.068Z,22.40
2018-08-28T13:18:07.276Z,22.30
2018-08-28T13:20:35.809Z,22.30
2018-08-28T13:23:05.757Z,22.40
2018-08-28T13:25:34.469Z,22.50
2018-08-28T13:28:02.991Z,22.50
2018-08-28T13:30:31.539Z,23.20
2018-08-28T13:33:00.034Z,22.50
2018-08-28T13:35:28.767Z,23.00
2018-08-28T13:37:57.367Z,22.40
2018-08-28T13:40:25.941Z,22.60
2018-08-28T13:42:54.978Z,20.80
2018-08-28T13:45:24.338Z,20.90
2018-08-28T13:47:53.115Z,20.80
2018-08-28T13:50:22.740Z,20.00
2018-08-28T13:52:51.233Z,17.00
2018-08-28T13:55:20.005Z,16.20
2018-08-28T13:57:48.763Z,17.00
2018-08-28T14:00:17.327Z,15.60
2018-08-28T14:02:46.175Z,14.20
2018-08-28T14:05:14.743Z,14.40
2018-08-28T14:07:44.147Z,12.10
2018-08-28T14:10:13.093Z,11.80
2018-08-28T14:12:41.642Z,12.60
2018-08-28T14:15:10.177Z,11.20
2018-08-28T14:17:38.775Z,11.30
2018-08-28T14:20:07.484Z,13.10
2018-08-28T14:22:36.133Z,13.60
2018-08-28T14:25:04.676Z,13.50
2018-08-28T14:27:33.307Z,14.20
2018-08-28T14:30:01.942Z,14.20
2018-08-28T14:32:30.493Z,14.70
2018-08-28T14:34:59.070Z,15.40
2018-08-28T14:37:27.630Z,16.20
2018-08-28T14:39:56.181Z,16.30
2018-08-28T14:42:24.831Z,17.20
2018-08-28T14:44:54.856Z,17.20
2018-08-28T14:47:23.415Z,17.10
2018-08-28T14:49:52.260Z,18.00
2018-08-28T14:52:20.774Z,18.20
2018-08-28T14:54:49.289Z,17.80
2018-08-28T14:57:18.143Z,18.70
2018-08-28T14:59:46.742Z,18.40
2018-08-28T15:02:15.450Z,18.20
2018-08-28T15:04:43.994Z,18.70
2018-08-28T15:07:12.499Z,18.80
2018-08-28T15:09:41.043Z,18.30
2018-08-28T15:12:09.718Z,18.70
2018-08-28T15:14:38.235Z,18.80
2018-08-28T15:17:06.767Z,18.90
2018-08-28T15:19:35.540Z,19.20
2018-08-28T15:22:04.051Z,19.70
2018-08-28T15:24:32.622Z,19.30
2018-08-28T15:27:01.292Z,19.80
2018-08-28T15:29:30.025Z,20.00
2018-08-28T15:31:58.527Z,20.20
2018-08-28T15:34:27.060Z,20.30
2018-08-28T15:36:56.162Z,20.10
2018-08-28T15:39:24.718Z,20.60
2018-08-28T15:41:53.593Z,20.40
2018-08-28T15:44:23.306Z,20.60
2018-08-28T15:46:51.836Z,21.10
2018-08-28T15:49:20.408Z,21.20
2018-08-28T15:51:49.106Z,21.30
2018-08-28T15:54:17.809Z,21.80
2018-08-28T15:56:46.740Z,21.10
2018-08-28T15:59:15.314Z,20.40
2018-08-28T16:01:43.856Z,20.30
2018-08-28T16:04:16.619Z,20.80
2018-08-28T16:06:45.223Z,21.60
2018-08-28T16:09:13.830Z,21.50
2018-08-28T16:11:42.347Z,21.40
2018-08-28T16:14:10.959Z,21.60
2018-08-28T16:16:39.699Z,21.30
2018-08-28T16:19:08.898Z,21.20
2018-08-28T16:21:46.265Z,21.20
2018-08-28T16:24:15.452Z,21.20
2018-08-28T16:26:44.353Z,21.30
2018-08-28T16:29:12.944Z,21.70
2018-08-28T16:31:41.571Z,21.60
2018-08-28T16:34:10.870Z,21.10
2018-08-28T16:36:40.077Z,21.30
2018-08-28T16:39:09.733Z,21.70
2018-08-28T16:41:38.816Z,21.80
2018-08-28T16:44:07.894Z,22.30
2018-08-28T16:46:36.897Z,22.00
2018-08-28T16:49:05.868Z,22.50
2018-08-28T16:51:34.376Z,22.30
2018-08-28T16:54:02.877Z,21.90
2018-08-28T16:56:31.424Z,22.40
2018-08-28T16:59:00.182Z,22.10
2018-08-28T17:01:28.751Z,22.30
2018-08-28T17:03:57.291Z,22.50
2018-08-28T17:06:26.086Z,23.10
2018-08-28T17:08:54.587Z,23.70
2018-08-28T17:11:23.795Z,23.90
2018-08-28T17:13:53.397Z,24.00
2018-08-28T17:16:22.018Z,24.60
2018-08-28T17:18:50.560Z,24.70
2018-08-28T17:21:19.080Z,24.70
2018-08-28T17:23:47.683Z,25.50
2018-08-28T17:26:16.224Z,25.70
2018-08-28T17:28:44.746Z,25.20
2018-08-28T17:31:13.275Z,25.30
2018-08-28T17:33:41.819Z,25.10
2018-08-28T17:36:10.293Z,25.30
2018-08-28T17:38:38.827Z,25.50
2018-08-28T17:41:07.399Z,25.60
2018-08-28T17:43:36.273Z,25.50
2018-08-28T17:46:04.871Z,25.50
2018-08-28T17:48:33.566Z,26.20
2018-08-28T17:51:02.068Z,26.50
2018-08-28T17:53:30.805Z,26.70
2018-08-28T17:55:59.752Z,27.00
2018-08-28T17:58:28.307Z,27.30
2018-08-28T18:00:56.878Z,27.60
2018-08-28T18:03:26.090Z,27.80
2018-08-28T18:05:54.660Z,28.20
2018-08-28T18:08:23.342Z,29.20
2018-08-28T18:10:52.096Z,28.80
2018-08-28T18:13:21.508Z,29.20
2018-08-28T18:15:50.776Z,29.50
2018-08-28T18:18:19.391Z,29.60
2018-08-28T18:20:48.199Z,29.80
2018-08-28T18:23:16.858Z,30.20
2018-08-28T18:25:46.035Z,30.20
2018-08-28T18:28:15.960Z,30.10
2018-08-28T18:30:44.845Z,30.10
2018-08-28T18:33:13.464Z,30.00
2018-08-28T18:35:42.258Z,30.00
2018-08-28T18:38:10.871Z,30.80
2018-08-28T18:40:39.556Z,31.50
2018-08-28T18:43:09.893Z,31.90
2018-08-28T18:45:38.612Z,33.40
2018-08-28T18:48:07.892Z,32.90
2018-08-28T18:50:37.016Z,33.00
2018-08-28T18:53:06.244Z,33.50
2018-08-28T18:55:34.955Z,34.00
2018-08-28T18:58:03.526Z,34.20
2018-08-28T19:00:32.183Z,35.20
2018-08-28T19:03:01.378Z,34.40
2018-08-28T19:05:30.821Z,34.80
2018-08-28T19:07:59.701Z,34.90
2018-08-28T19:10:28.338Z,35.30
2018-08-28T19:12:57.145Z,35.50
2018-08-28T19:15:26.400Z,35.90
2018-08-28T19:17:54.985Z,36.20
2018-08-28T19:20:24.972Z,36.10
2018-08-28T19:22:53.552Z,36.20
2018-08-28T19:25:22.077Z,36.20
2018-08-28T19:27:50.898Z,36.60
2018-08-28T19:30:19.651Z,36.80
2018-08-28T19:32:49.480Z,37.00
2018-08-28T19:35:18.168Z,36.90
2018-08-28T19:37:47.311Z,36.90
2018-08-28T19:40:15.851Z,37.30
2018-08-28T19:42:44.594Z,37.50
2018-08-28T19:45:13.251Z,37.50
2018-08-28T19:47:42.285Z,37.90
2018-08-28T19:50:10.859Z,37.70
2018-08-28T19:52:41.220Z,38.20
2018-08-28T19:55:09.876Z,38.40
2018-08-28T19:57:39.068Z,38.50
2018-08-28T20:00:09.131Z,38.80
2018-08-28T20:02:37.706Z,39.80
2018-08-28T20:05:06.588Z,38.90
2018-08-28T20:07:35.317Z,39.00
2018-08-28T20:10:04.305Z,39.40
2018-08-28T20:12:32.920Z,39.40
2018-08-28T20:15:02.498Z,39.40
2018-08-28T20:17:31.263Z,40.10
2018-08-28T20:19:59.981Z,40.00
2018-08-28T20:22:28.580Z,40.30
2018-08-28T20:24:57.256Z,40.00
2018-08-28T20:27:25.842Z,39.80
2018-08-28T20:29:54.415Z,40.10
2018-08-28T20:32:22.998Z,40.70
2018-08-28T20:34:51.607Z,40.40
2018-08-28T20:37:20.353Z,40.60
2018-08-28T20:39:49.046Z,40.90
2018-08-28T20:42:17.605Z,41.00
2018-08-28T20:44:46.375Z,41.00
2018-08-28T20:47:14.846Z,40.90
2018-08-28T20:49:43.395Z,41.30
2018-08-28T20:52:12.197Z,42.10
2018-08-28T20:54:40.918Z,42.10
2018-08-28T20:57:09.991Z,42.10
2018-08-28T20:59:38.551Z,42.00
2018-08-28T21:02:07.090Z,42.00
2018-08-28T21:04:35.724Z,42.00
2018-08-28T21:07:04.315Z,41.80
2018-08-28T21:09:32.943Z,42.00
2018-08-28T21:12:01.457Z,41.80
2018-08-28T21:14:30.171Z,41.80
2018-08-28T21:16:58.679Z,41.80
2018-08-28T21:19:27.233Z,41.70
2018-08-28T21:21:55.756Z,41.70
2018-08-28T21:24:24.244Z,41.60
2018-08-28T21:26:53.536Z,41.60
2018-08-28T21:29:22.103Z,41.50
2018-08-28T21:31:51.214Z,41.60
2018-08-28T21:34:20.045Z,41.50
2018-08-28T21:36:48.565Z,41.50
2018-08-28T21:39:17.060Z,40.90
2018-08-28T21:41:45.562Z,42.20
2018-08-28T21:44:14.322Z,42.40
2018-08-28T21:46:42.843Z,42.60
2018-08-28T21:49:11.368Z,42.00
2018-08-28T21:51:39.869Z,42.20
2018-08-28T21:54:08.407Z,42.00
2018-08-28T21:56:36.896Z,43.00
2018-08-28T21:59:05.487Z,43.30
2018-08-28T22:01:34.060Z,43.20
2018-08-28T22:04:02.706Z,43.30
2018-08-28T22:06:36.756Z,43.30
2018-08-28T22:09:06.045Z,43.40
2018-08-28T22:11:35.329Z,43.60
2018-08-28T22:14:04.208Z,43.60
2018-08-28T22:16:33.470Z,43.40
2018-08-28T22:19:03.952Z,44.20
2018-08-28T22:21:33.567Z,42.80
2018-08-28T22:24:02.338Z,43.70
2018-08-28T22:26:33.005Z,43.90
2018-08-28T22:29:01.588Z,44.10
2018-08-28T22:31:31.090Z,43.90
2018-08-28T22:33:59.627Z,44.00
2018-08-28T22:36:28.114Z,44.30
2018-08-28T22:38:56.758Z,43.90
2018-08-28T22:41:25.254Z,44.10
2018-08-28T22:43:54.032Z,44.10
2018-08-28T22:46:22.574Z,44.80
2018-08-28T22:48:51.135Z,44.90
2018-08-28T22:51:19.694Z,44.90
2018-08-28T22:53:48.242Z,45.10
2018-08-28T22:56:16.865Z,45.00
2018-08-28T22:58:45.418Z,45.20
2018-08-28T23:01:13.918Z,45.10
2018-08-28T23:03:42.799Z,44.60
2018-08-28T23:06:11.288Z,45.00
2018-08-28T23:08:41.102Z,44.70
2018-08-28T23:11:10.016Z,45.30
2018-08-28T23:13:38.778Z,45.00
2018-08-28T23:16:08.047Z,45.30
2018-08-28T23:18:36.747Z,45.70
2018-08-28T23:21:05.550Z,45.80
2018-08-28T23:23:35.109Z,45.90
2018-08-28T23:26:03.597Z,46.10
2018-08-28T23:28:32.135Z,47.20
2018-08-28T23:31:01.206Z,46.00
2018-08-28T23:33:29.731Z,46.70
2018-08-28T23:35:58.198Z,47.80
2018-08-28T23:38:26.793Z,47.20
2018-08-28T23:40:55.322Z,47.30
2018-08-28T23:43:24.091Z,46.90
2018-08-28T23:45:52.641Z,47.20
2018-08-28T23:48:21.186Z,47.10
2018-08-28T23:50:49.678Z,47.10
2018-08-28T23:53:18.225Z,47.10
2018-08-28T23:55:46.746Z,47.10
2018-08-28T23:58:15.306Z,47.30
